Time;durP1;ratioP1;P1;durP2;ratioP2;P2;SDS_P1;SDS_P2;PMS_P1;PMS_P2;Temp;Humidity;BMP_temperature;BMP_pressure;BME280_temperature;BME280_humidity;BME280_pressure;Samples;Min_cycle;Max_cycle;Signal;HPM_P1;HPM_P2
2022/04/17 00:01:32;;;;;;;5.97;2.55;;;;;;;;;;4989790;28;20105;-69
2022/04/17 00:03:57;;;;;;;7.85;3.83;;;;;;;;;;4992982;28;20126;-67
2022/04/17 00:06:22;;;;;;;9.80;4.00;;;;;;;;;;4991860;28;20053;-69
2022/04/17 00:08:48;;;;;;;6.45;3.90;;;;;;;;;;4985245;28;20277;-71
2022/04/17 00:11:14;;;;;;;3.67;3.00;;;;;;;;;;4964801;28;20045;-68
2022/04/17 00:13:39;;;;;;;7.00;3.17;;;;;;;;;;4986917;28;20066;-69
2022/04/17 00:16:04;;;;;;;6.28;3.75;;;;;;;;;;4986417;28;20045;-68
2022/04/17 00:18:29;;;;;;;7.40;3.97;;;;;;;;;;4986793;28;20022;-68
2022/04/17 00:20:55;;;;;;;7.25;3.50;;;;;;;;;;4986549;28;20041;-68
2022/04/17 00:23:20;;;;;;;7.22;3.80;;;;;;;;;;4989217;28;20030;-71
2022/04/17 00:25:45;;;;;;;9.67;2.97;;;;;;;;;;4981429;28;20023;-68
2022/04/17 00:28:11;;;;;;;7.40;3.47;;;;;;;;;;4991203;28;20832;-67
2022/04/17 00:30:36;;;;;;;7.60;3.92;;;;;;;;;;4989383;28;20041;-68
2022/04/17 00:33:01;;;;;;;6.87;3.57;;;;;;;;;;4991611;28;20031;-67
2022/04/17 00:35:26;;;;;;;7.97;3.60;;;;;;;;;;4986984;28;20752;-68
2022/04/17 00:37:51;;;;;;;3.60;2.17;;;;;;;;;;4983765;28;20117;-67
2022/04/17 00:40:17;;;;;;;4.90;3.40;;;;;;;;;;4990605;28;20040;-68
2022/04/17 00:42:42;;;;;;;6.40;3.25;;;;;;;;;;4989371;28;20027;-69
2022/04/17 00:45:07;;;;;;;7.93;3.25;;;;;;;;;;4990634;28;20105;-68
2022/04/17 00:47:33;;;;;;;4.55;2.03;;;;;;;;;;4987278;28;20052;-67
2022/04/17 00:49:58;;;;;;;2.53;1.80;;;;;;;;;;4987954;28;20068;-67
2022/04/17 00:52:23;;;;;;;4.43;2.57;;;;;;;;;;4992918;28;20030;-68
2022/04/17 00:54:49;;;;;;;7.60;2.75;;;;;;;;;;4986255;28;20380;-69
2022/04/17 00:57:17;;;;;;;8.38;3.22;;;;;;;;;;4992542;28;20538;-67
2022/04/17 00:59:44;;;;;;;6.28;3.00;;;;;;;;;;4987190;28;20479;-68
2022/04/17 01:02:10;;;;;;;6.65;3.63;;;;;;;;;;4988614;28;20062;-67
2022/04/17 01:04:35;;;;;;;11.07;3.72;;;;;;;;;;4990685;28;20424;-71
2022/04/17 01:07:02;;;;;;;7.43;4.18;;;;;;;;;;4989505;28;20450;-67
2022/04/17 01:09:27;;;;;;;9.00;3.50;;;;;;;;;;4989334;28;20025;-69
2022/04/17 01:11:52;;;;;;;7.38;3.30;;;;;;;;;;4989541;28;20483;-68
2022/04/17 01:14:19;;;;;;;4.13;2.70;;;;;;;;;;4988706;28;20085;-68
2022/04/17 01:16:44;;;;;;;6.45;3.17;;;;;;;;;;4990513;28;20022;-68
2022/04/17 01:19:12;;;;;;;6.43;3.33;;;;;;;;;;4987554;28;20076;-69
2022/04/17 01:21:41;;;;;;;5.70;3.20;;;;;;;;;;4990241;28;20022;-69
2022/04/17 01:26:58;;;;;;;5.65;3.08;;;;;;;;;;4989014;28;20033;-68
2022/04/17 01:29:25;;;;;;;8.70;3.72;;;;;;;;;;4987233;28;20019;-68
2022/04/17 01:31:51;;;;;;;7.13;3.38;;;;;;;;;;4986795;28;21492;-68
2022/04/17 01:34:16;;;;;;;7.03;3.40;;;;;;;;;;4987461;28;20097;-68
2022/04/17 01:36:45;;;;;;;6.25;3.30;;;;;;;;;;4988396;28;20026;-68
2022/04/17 01:39:14;;;;;;;10.50;4.63;;;;;;;;;;4987909;28;20383;-68
2022/04/17 01:41:39;;;;;;;7.05;3.40;;;;;;;;;;4991101;28;20045;-68
2022/04/17 01:44:05;;;;;;;6.65;3.15;;;;;;;;;;4988010;28;20487;-69
2022/04/17 01:46:30;;;;;;;9.15;3.13;;;;;;;;;;4989442;28;20022;-71
2022/04/17 01:48:55;;;;;;;8.82;3.10;;;;;;;;;;4986218;28;20129;-68
2022/04/17 01:51:21;;;;;;;6.68;3.42;;;;;;;;;;4987152;28;20030;-68
2022/04/17 01:53:47;;;;;;;7.85;3.13;;;;;;;;;;4968778;28;20029;-68
2022/04/17 01:56:12;;;;;;;6.82;3.28;;;;;;;;;;4966026;28;20030;-66
2022/04/17 01:58:37;;;;;;;5.72;2.88;;;;;;;;;;4991626;28;20109;-67
2022/04/17 02:01:03;;;;;;;6.40;3.42;;;;;;;;;;4982136;28;20031;-67
2022/04/17 02:03:28;;;;;;;10.35;3.30;;;;;;;;;;4988494;28;20018;-66
2022/04/17 02:05:53;;;;;;;5.97;3.03;;;;;;;;;;4986565;28;20073;-67
2022/04/17 02:08:18;;;;;;;5.85;2.80;;;;;;;;;;4992344;28;20019;-66
2022/04/17 02:10:43;;;;;;;6.27;2.80;;;;;;;;;;4986329;28;20025;-66
2022/04/17 02:13:08;;;;;;;7.28;3.03;;;;;;;;;;4986279;28;20282;-66
2022/04/17 02:15:34;;;;;;;5.53;3.20;;;;;;;;;;4986743;28;20105;-67
2022/04/17 02:17:59;;;;;;;5.27;2.87;;;;;;;;;;4972736;28;20763;-66
2022/04/17 02:20:24;;;;;;;6.15;3.33;;;;;;;;;;4990753;28;20265;-68
2022/04/17 02:22:49;;;;;;;7.28;2.97;;;;;;;;;;4988239;28;20363;-67
2022/04/17 02:25:14;;;;;;;6.13;3.35;;;;;;;;;;4987949;28;20076;-66
2022/04/17 02:27:40;;;;;;;5.13;2.90;;;;;;;;;;4987694;28;20079;-68
2022/04/17 02:30:05;;;;;;;7.77;2.87;;;;;;;;;;4990146;28;20650;-67
2022/04/17 02:32:30;;;;;;;7.00;3.10;;;;;;;;;;4990625;28;20273;-66
2022/04/17 02:34:56;;;;;;;6.30;3.07;;;;;;;;;;4989606;28;20068;-67
2022/04/17 02:37:21;;;;;;;6.22;3.25;;;;;;;;;;4993594;28;20277;-66
2022/04/17 02:39:46;;;;;;;6.68;3.10;;;;;;;;;;4992185;28;20037;-68
2022/04/17 02:42:11;;;;;;;8.45;3.50;;;;;;;;;;4991556;28;20081;-68
2022/04/17 02:44:36;;;;;;;4.43;2.70;;;;;;;;;;4992547;28;20026;-69
2022/04/17 02:49:46;;;;;;;5.60;2.88;;;;;;;;;;4986020;28;20092;-67
2022/04/17 02:52:11;;;;;;;10.48;3.05;;;;;;;;;;4989227;28;20518;-68
2022/04/17 02:54:38;;;;;;;4.93;3.00;;;;;;;;;;4990861;28;20553;-67
2022/04/17 02:57:03;;;;;;;7.95;3.40;;;;;;;;;;4991266;28;20161;-67
2022/04/17 02:59:28;;;;;;;8.93;2.95;;;;;;;;;;4990555;28;20094;-67
2022/04/17 03:07:21;;;;;;;9.93;2.75;;;;;;;;;;4989838;28;20378;-67
2022/04/17 03:09:46;;;;;;;8.47;3.00;;;;;;;;;;4987547;28;20109;-68
2022/04/17 03:12:12;;;;;;;10.57;3.47;;;;;;;;;;4988980;28;20274;-67
2022/04/17 03:14:37;;;;;;;11.35;3.58;;;;;;;;;;4991404;28;20030;-67
2022/04/17 03:17:04;;;;;;;4.40;3.07;;;;;;;;;;4991204;28;20023;-67
2022/04/17 03:19:29;;;;;;;13.38;3.58;;;;;;;;;;4989417;28;20277;-67
2022/04/17 03:21:54;;;;;;;9.10;3.25;;;;;;;;;;4987672;28;20029;-67
2022/04/17 03:24:20;;;;;;;7.85;3.47;;;;;;;;;;4990505;28;20018;-69
2022/04/17 03:26:45;;;;;;;8.13;3.10;;;;;;;;;;4990818;28;20420;-67
2022/04/17 03:29:10;;;;;;;4.93;2.93;;;;;;;;;;4991468;28;20014;-68
2022/04/17 03:31:35;;;;;;;6.40;3.47;;;;;;;;;;4988364;28;20848;-67
2022/04/17 03:34:00;;;;;;;6.60;3.05;;;;;;;;;;4983469;28;20269;-68
2022/04/17 03:36:25;;;;;;;5.82;2.97;;;;;;;;;;4989351;28;20023;-70
2022/04/17 03:38:51;;;;;;;7.13;3.40;;;;;;;;;;4987456;28;20022;-67
2022/04/17 03:41:16;;;;;;;6.20;3.17;;;;;;;;;;4990879;28;20023;-69
2022/04/17 03:43:42;;;;;;;5.68;2.78;;;;;;;;;;4989417;28;20029;-67
2022/04/17 03:46:07;;;;;;;7.60;3.30;;;;;;;;;;4990854;28;20027;-67
2022/04/17 03:48:32;;;;;;;6.60;2.90;;;;;;;;;;4987554;28;20022;-67
2022/04/17 03:50:57;;;;;;;5.33;3.20;;;;;;;;;;4990206;28;20391;-67
2022/04/17 03:53:23;;;;;;;9.97;3.20;;;;;;;;;;4995996;28;20273;-68
2022/04/17 03:55:48;;;;;;;7.38;3.50;;;;;;;;;;4983941;28;20297;-67
2022/04/17 03:58:13;;;;;;;10.43;3.20;;;;;;;;;;4988671;28;20025;-68
2022/04/17 04:00:38;;;;;;;6.13;2.97;;;;;;;;;;4990207;28;20030;-68
2022/04/17 04:03:03;;;;;;;5.30;2.93;;;;;;;;;;4990382;28;20278;-67
2022/04/17 04:05:29;;;;;;;6.03;3.20;;;;;;;;;;4990154;28;20481;-69
2022/04/17 04:07:54;;;;;;;6.50;2.58;;;;;;;;;;4988414;28;20014;-67
2022/04/17 04:10:19;;;;;;;8.53;3.23;;;;;;;;;;4984624;28;20541;-69
2022/04/17 04:12:44;;;;;;;9.32;2.90;;;;;;;;;;4982323;28;20273;-67
2022/04/17 04:15:09;;;;;;;8.90;3.17;;;;;;;;;;4990354;28;20040;-68
2022/04/17 04:17:35;;;;;;;7.50;2.97;;;;;;;;;;4986298;28;20624;-67
2022/04/17 04:20:01;;;;;;;7.27;2.37;;;;;;;;;;4991461;28;20069;-68
2022/04/17 04:22:26;;;;;;;7.03;3.15;;;;;;;;;;4993009;28;20777;-68
2022/04/17 04:24:51;;;;;;;4.90;2.83;;;;;;;;;;4986272;28;20029;-67
2022/04/17 04:30:01;;;;;;;5.82;2.65;;;;;;;;;;4989086;28;20085;-68
2022/04/17 04:34:57;;;;;;;4.70;2.70;;;;;;;;;;4951946;28;20121;-65
2022/04/17 04:37:22;;;;;;;3.95;2.42;;;;;;;;;;4949500;28;20051;-66
2022/04/17 04:39:47;;;;;;;5.95;3.08;;;;;;;;;;4947981;28;20070;-65
2022/04/17 04:42:12;;;;;;;5.88;2.17;;;;;;;;;;4950723;28;20035;-66
2022/04/17 04:44:38;;;;;;;4.60;2.60;;;;;;;;;;4955091;28;20483;-66
2022/04/17 04:47:03;;;;;;;7.07;2.70;;;;;;;;;;4950292;28;20285;-66
2022/04/17 04:49:31;;;;;;;6.50;2.58;;;;;;;;;;4951022;28;20022;-65
2022/04/17 04:51:57;;;;;;;5.60;2.72;;;;;;;;;;4950693;28;20436;-64
2022/04/17 04:54:22;;;;;;;5.50;2.40;;;;;;;;;;4956894;28;20518;-65
2022/04/17 04:56:47;;;;;;;5.47;2.70;;;;;;;;;;4952976;28;20032;-65
2022/04/17 04:59:13;;;;;;;7.90;2.60;;;;;;;;;;4950467;28;20074;-65
2022/04/17 05:01:38;;;;;;;5.17;2.23;;;;;;;;;;4949208;28;20283;-65
2022/04/17 05:04:03;;;;;;;4.10;2.33;;;;;;;;;;4951444;28;20309;-65
2022/04/17 05:06:28;;;;;;;5.07;2.55;;;;;;;;;;4951078;28;20387;-65
2022/04/17 05:08:53;;;;;;;4.07;2.33;;;;;;;;;;4951642;28;20057;-66
2022/04/17 05:11:20;;;;;;;3.90;2.43;;;;;;;;;;4951484;28;20074;-65
2022/04/17 05:13:45;;;;;;;5.53;2.42;;;;;;;;;;4949266;28;20739;-65
2022/04/17 05:16:10;;;;;;;3.60;2.17;;;;;;;;;;4950433;28;20039;-65
2022/04/17 05:18:35;;;;;;;10.43;2.97;;;;;;;;;;4950899;28;20059;-65
2022/04/17 05:21:01;;;;;;;2.72;1.83;;;;;;;;;;4951562;28;20031;-64
2022/04/17 05:23:29;;;;;;;5.43;2.30;;;;;;;;;;4952226;28;20030;-65
2022/04/17 05:25:55;;;;;;;5.25;2.05;;;;;;;;;;4933431;28;20027;-66
2022/04/17 05:28:20;;;;;;;4.20;2.45;;;;;;;;;;4950659;28;20051;-67
2022/04/17 05:30:46;;;;;;;6.43;2.22;;;;;;;;;;4949238;28;20088;-65
2022/04/17 05:33:11;;;;;;;4.88;1.92;;;;;;;;;;4951178;28;20074;-65
2022/04/17 05:35:37;;;;;;;8.13;1.83;;;;;;;;;;4949774;28;20034;-65
2022/04/17 05:38:02;;;;;;;3.95;1.80;;;;;;;;;;4949923;28;20758;-66
2022/04/17 05:40:28;;;;;;;3.33;1.83;;;;;;;;;;4956677;28;20043;-65
2022/04/17 05:42:54;;;;;;;1.88;0.80;;;;;;;;;;4950122;28;20034;-65
2022/04/17 05:45:20;;;;;;;8.82;2.38;;;;;;;;;;4949590;28;20462;-66
2022/04/17 05:47:45;;;;;;;3.90;1.57;;;;;;;;;;4949577;28;20111;-66
2022/04/17 05:50:10;;;;;;;8.52;2.78;;;;;;;;;;4957343;28;20302;-66
2022/04/17 05:52:35;;;;;;;3.83;2.10;;;;;;;;;;4952297;28;20107;-65
2022/04/17 05:55:01;;;;;;;4.60;2.33;;;;;;;;;;4948567;28;20024;-65
2022/04/17 05:57:26;;;;;;;3.03;1.52;;;;;;;;;;4949853;28;20153;-65
2022/04/17 05:59:51;;;;;;;7.13;2.58;;;;;;;;;;4937548;29;20023;-66
2022/04/17 06:02:17;;;;;;;6.40;1.90;;;;;;;;;;4955168;28;20050;-65
2022/04/17 06:04:42;;;;;;;8.25;2.30;;;;;;;;;;4958546;28;20023;-66
2022/04/17 06:07:08;;;;;;;1.70;1.10;;;;;;;;;;4953879;28;20031;-65
2022/04/17 06:09:34;;;;;;;4.55;1.88;;;;;;;;;;4951954;28;20281;-67
2022/04/17 06:11:59;;;;;;;3.22;1.40;;;;;;;;;;4954001;28;20023;-65
2022/04/17 06:14:24;;;;;;;6.50;1.90;;;;;;;;;;4953141;28;20023;-66
2022/04/17 06:16:49;;;;;;;6.67;3.20;;;;;;;;;;4957206;28;20378;-65
2022/04/17 06:19:14;;;;;;;6.13;2.17;;;;;;;;;;4957978;28;20349;-66
2022/04/17 06:21:40;;;;;;;4.65;2.05;;;;;;;;;;4961042;28;20345;-65
2022/04/17 06:24:05;;;;;;;4.63;2.30;;;;;;;;;;4958730;28;20027;-65
2022/04/17 06:26:32;;;;;;;4.15;2.13;;;;;;;;;;4936983;29;20114;-65
2022/04/17 06:29:00;;;;;;;7.28;2.20;;;;;;;;;;4954094;28;20027;-65
2022/04/17 06:31:25;;;;;;;4.60;1.52;;;;;;;;;;4954204;28;20543;-65
2022/04/17 06:33:50;;;;;;;12.00;3.00;;;;;;;;;;4955434;28;20026;-65
2022/04/17 06:36:15;;;;;;;2.40;1.27;;;;;;;;;;4954169;28;20297;-65
2022/04/17 06:38:40;;;;;;;3.67;2.73;;;;;;;;;;4954680;28;20027;-65
2022/04/17 06:41:06;;;;;;;5.78;1.35;;;;;;;;;;4952707;28;20291;-66
2022/04/17 06:43:31;;;;;;;3.60;1.55;;;;;;;;;;4954384;28;20432;-66
2022/04/17 06:45:56;;;;;;;8.03;2.77;;;;;;;;;;4938921;28;20457;-65
2022/04/17 06:48:22;;;;;;;2.75;1.70;;;;;;;;;;4955302;28;20283;-65
2022/04/17 06:50:48;;;;;;;3.97;1.63;;;;;;;;;;4951415;28;20110;-67
2022/04/17 06:53:13;;;;;;;1.05;0.95;;;;;;;;;;4956105;28;20023;-66
2022/04/17 06:55:39;;;;;;;6.78;1.70;;;;;;;;;;4955229;28;20030;-65
2022/04/17 06:58:04;;;;;;;2.10;1.40;;;;;;;;;;4956687;28;20027;-66
2022/04/17 07:00:29;;;;;;;4.40;1.60;;;;;;;;;;4955460;28;20106;-67
2022/04/17 07:02:54;;;;;;;2.40;1.30;;;;;;;;;;4954769;28;20189;-66
2022/04/17 07:05:20;;;;;;;3.87;1.57;;;;;;;;;;4951946;28;20531;-67
2022/04/17 07:07:45;;;;;;;4.45;1.77;;;;;;;;;;4954541;29;20448;-66
2022/04/17 07:10:11;;;;;;;5.27;1.87;;;;;;;;;;4952116;28;20022;-66
2022/04/17 07:12:37;;;;;;;2.78;1.15;;;;;;;;;;4955906;28;20274;-66
2022/04/17 07:15:03;;;;;;;1.67;0.82;;;;;;;;;;4950471;28;20023;-67
2022/04/17 07:17:38;;;;;;;5.97;1.42;;;;;;;;;;4952086;28;20038;-67
2022/04/17 07:20:07;;;;;;;4.53;1.50;;;;;;;;;;4954209;28;20030;-66
2022/04/17 07:22:33;;;;;;;5.55;1.60;;;;;;;;;;4951405;28;20034;-66
2022/04/17 07:25:01;;;;;;;2.22;1.25;;;;;;;;;;4953073;28;20027;-66
2022/04/17 07:27:26;;;;;;;2.67;1.38;;;;;;;;;;4952808;28;20317;-66
2022/04/17 07:29:52;;;;;;;3.83;1.48;;;;;;;;;;4954085;28;20034;-66
2022/04/17 07:32:18;;;;;;;1.35;0.60;;;;;;;;;;4952058;28;20121;-66
2022/04/17 07:34:43;;;;;;;4.78;1.08;;;;;;;;;;4955209;28;20204;-67
2022/04/17 07:37:08;;;;;;;1.60;0.93;;;;;;;;;;4951073;28;20082;-66
2022/04/17 07:39:33;;;;;;;5.30;1.30;;;;;;;;;;4952570;28;20345;-66
2022/04/17 07:41:59;;;;;;;7.97;1.25;;;;;;;;;;4937024;29;20424;-67
2022/04/17 07:44:26;;;;;;;2.80;1.75;;;;;;;;;;4952682;28;20211;-66
2022/04/17 07:46:52;;;;;;;1.73;0.95;;;;;;;;;;4954114;28;20019;-66
2022/04/17 07:49:17;;;;;;;1.87;0.90;;;;;;;;;;4953102;28;20030;-66
2022/04/17 07:51:42;;;;;;;3.88;1.58;;;;;;;;;;4955888;28;20456;-66
2022/04/17 07:54:08;;;;;;;1.90;0.93;;;;;;;;;;4954053;28;20541;-66
2022/04/17 07:56:33;;;;;;;3.17;1.50;;;;;;;;;;4972932;28;20258;-66
2022/04/17 07:58:58;;;;;;;2.83;1.42;;;;;;;;;;4968408;28;20042;-66
2022/04/17 08:01:24;;;;;;;4.47;1.20;;;;;;;;;;4953074;28;20078;-66
2022/04/17 08:03:49;;;;;;;3.17;1.13;;;;;;;;;;4953692;29;20399;-66
2022/04/17 08:06:16;;;;;;;2.87;1.10;;;;;;;;;;4953685;29;20051;-66
2022/04/17 08:08:41;;;;;;;4.05;1.48;;;;;;;;;;4936465;28;20255;-67
2022/04/17 08:11:07;;;;;;;1.98;1.25;;;;;;;;;;4936260;29;20017;-66
2022/04/17 08:13:32;;;;;;;2.22;1.35;;;;;;;;;;4956817;28;20030;-68
2022/04/17 08:15:59;;;;;;;1.63;1.00;;;;;;;;;;4968599;28;20078;-66
2022/04/17 08:18:24;;;;;;;2.45;1.23;;;;;;;;;;4953557;28;20054;-66
2022/04/17 08:20:49;;;;;;;5.50;1.13;;;;;;;;;;4935523;28;20501;-66
2022/04/17 08:23:14;;;;;;;7.53;1.97;;;;;;;;;;4956387;28;20034;-66
2022/04/17 08:25:40;;;;;;;2.05;0.95;;;;;;;;;;4972461;28;20498;-66
2022/04/17 08:28:05;;;;;;;3.53;1.00;;;;;;;;;;4965734;28;20102;-66
2022/04/17 08:30:32;;;;;;;4.35;1.13;;;;;;;;;;4968312;28;20521;-65
2022/04/17 08:32:58;;;;;;;2.78;1.25;;;;;;;;;;4965936;28;20114;-66
2022/04/17 08:35:23;;;;;;;3.42;1.15;;;;;;;;;;4959090;28;20034;-66
2022/04/17 08:37:49;;;;;;;1.45;1.05;;;;;;;;;;4957607;28;20377;-66
2022/04/17 08:40:15;;;;;;;1.23;0.57;;;;;;;;;;4967615;28;20692;-66
2022/04/17 08:42:40;;;;;;;5.60;1.20;;;;;;;;;;4954645;28;20022;-66
2022/04/17 08:45:12;;;;;;;3.60;1.60;;;;;;;;;;4960740;28;20039;-66
2022/04/17 08:47:38;;;;;;;7.10;1.67;;;;;;;;;;4967943;28;20014;-65
2022/04/17 08:50:13;;;;;;;4.47;1.60;;;;;;;;;;4969512;28;20042;-65
2022/04/17 08:52:39;;;;;;;5.72;1.45;;;;;;;;;;4960750;28;20027;-67
2022/04/17 08:55:05;;;;;;;4.00;1.40;;;;;;;;;;4971554;28;20027;-65
2022/04/17 08:57:30;;;;;;;0.77;0.65;;;;;;;;;;4972003;28;20521;-66
2022/04/17 08:59:55;;;;;;;5.88;1.88;;;;;;;;;;4972070;28;20025;-66
2022/04/17 09:02:20;;;;;;;7.07;1.53;;;;;;;;;;4956380;28;20034;-65
2022/04/17 09:04:46;;;;;;;2.40;1.10;;;;;;;;;;4952623;28;20263;-66
2022/04/17 09:07:11;;;;;;;2.75;0.68;;;;;;;;;;4964660;28;20281;-66
2022/04/17 09:09:41;;;;;;;3.17;1.23;;;;;;;;;;4971832;28;20026;-66
2022/04/17 09:12:07;;;;;;;5.35;2.63;;;;;;;;;;4960825;28;20023;-66
2022/04/17 09:14:36;;;;;;;5.13;1.23;;;;;;;;;;4948952;28;20456;-66
2022/04/17 09:17:07;;;;;;;1.83;0.68;;;;;;;;;;4954780;28;20069;-66
2022/04/17 09:19:33;;;;;;;3.05;1.30;;;;;;;;;;4952537;28;20027;-66
2022/04/17 09:21:58;;;;;;;7.97;1.30;;;;;;;;;;4950667;28;20037;-65
2022/04/17 09:24:24;;;;;;;4.72;1.25;;;;;;;;;;4949521;28;20282;-65
2022/04/17 09:26:56;;;;;;;5.88;2.03;;;;;;;;;;4951856;28;20372;-66
2022/04/17 09:29:29;;;;;;;2.13;1.23;;;;;;;;;;4958079;28;20031;-66
2022/04/17 09:31:58;;;;;;;3.03;1.25;;;;;;;;;;4952206;28;20031;-66
2022/04/17 09:34:24;;;;;;;2.17;0.88;;;;;;;;;;4949819;28;20042;-66
2022/04/17 09:36:55;;;;;;;3.22;0.98;;;;;;;;;;4950786;28;20027;-66
2022/04/17 09:39:20;;;;;;;2.38;0.80;;;;;;;;;;4947353;28;20031;-66
2022/04/17 09:41:53;;;;;;;3.65;1.48;;;;;;;;;;4948855;28;20045;-66
2022/04/17 09:44:37;;;;;;;4.85;1.30;;;;;;;;;;4949628;28;20027;-67
2022/04/17 09:47:07;;;;;;;1.27;0.70;;;;;;;;;;4950060;28;20027;-66
2022/04/17 09:49:49;;;;;;;3.10;1.73;;;;;;;;;;4954761;28;20025;-65
2022/04/17 09:52:14;;;;;;;5.00;1.20;;;;;;;;;;4959009;28;20380;-65
2022/04/17 09:54:42;;;;;;;2.80;1.10;;;;;;;;;;4951833;29;20026;-65
2022/04/17 09:57:07;;;;;;;4.95;1.17;;;;;;;;;;4950205;28;20771;-65
2022/04/17 09:59:33;;;;;;;3.33;1.08;;;;;;;;;;4949057;28;20023;-65
2022/04/17 10:01:58;;;;;;;1.35;0.95;;;;;;;;;;4950781;28;20020;-65
2022/04/17 10:04:25;;;;;;;2.97;1.43;;;;;;;;;;4950114;28;20031;-65
2022/04/17 10:06:51;;;;;;;3.03;1.45;;;;;;;;;;4953815;28;21004;-65
2022/04/17 10:09:17;;;;;;;2.05;1.13;;;;;;;;;;4957669;28;20357;-65
2022/04/17 10:11:42;;;;;;;2.25;1.05;;;;;;;;;;4959608;28;20018;-66
2022/04/17 10:14:08;;;;;;;2.40;0.88;;;;;;;;;;4954111;28;20031;-66
2022/04/17 10:16:33;;;;;;;2.78;1.38;;;;;;;;;;4949941;28;20037;-65
2022/04/17 10:19:05;;;;;;;4.75;1.40;;;;;;;;;;4949764;28;20039;-66
2022/04/17 10:21:34;;;;;;;2.30;1.15;;;;;;;;;;4951329;29;20051;-66
2022/04/17 10:24:00;;;;;;;6.88;1.30;;;;;;;;;;4950086;28;20023;-67
2022/04/17 10:26:26;;;;;;;2.20;0.95;;;;;;;;;;4935613;28;20031;-67
2022/04/17 10:28:54;;;;;;;4.60;1.48;;;;;;;;;;4957883;28;20078;-67
2022/04/17 10:31:20;;;;;;;2.78;0.93;;;;;;;;;;4964058;28;20418;-66
2022/04/17 10:34:06;;;;;;;3.75;1.42;;;;;;;;;;4987629;23;20133;-72
2022/04/17 10:36:37;;;;;;;4.35;1.20;;;;;;;;;;4989509;28;20018;-68
2022/04/17 10:39:23;;;;;;;7.40;1.33;;;;;;;;;;4990429;28;20053;-68
2022/04/17 10:41:49;;;;;;;4.47;1.33;;;;;;;;;;4988593;28;20019;-68
2022/04/17 10:44:15;;;;;;;5.55;2.28;;;;;;;;;;4990189;28;20122;-69
2022/04/17 10:46:44;;;;;;;6.97;2.35;;;;;;;;;;4991914;28;20109;-68
2022/04/17 10:49:10;;;;;;;2.97;1.55;;;;;;;;;;4998081;28;20029;-69
2022/04/17 10:51:35;;;;;;;1.00;0.80;;;;;;;;;;5012920;28;20052;-68
2022/04/17 10:54:03;;;;;;;4.10;0.93;;;;;;;;;;5013447;28;20264;-69
2022/04/17 10:56:30;;;;;;;1.60;0.70;;;;;;;;;;4981565;28;20026;-71
2022/04/17 10:58:59;;;;;;;2.05;0.70;;;;;;;;;;4996025;28;20478;-69
2022/04/17 11:01:42;;;;;;;1.60;1.00;;;;;;;;;;4990710;28;20514;-69
2022/04/17 11:04:15;;;;;;;4.38;1.27;;;;;;;;;;4991163;28;20034;-68
2022/04/17 11:06:41;;;;;;;2.22;1.08;;;;;;;;;;4993901;28;20553;-69
2022/04/17 11:09:09;;;;;;;2.53;1.10;;;;;;;;;;4992368;28;20110;-69
2022/04/17 11:11:38;;;;;;;3.03;1.00;;;;;;;;;;4999614;28;20386;-69
2022/04/17 11:14:06;;;;;;;4.30;1.15;;;;;;;;;;4990994;28;20026;-69
2022/04/17 11:16:36;;;;;;;4.85;0.95;;;;;;;;;;4995345;28;20027;-69
2022/04/17 11:19:01;;;;;;;;;;;;;;;;;;4993433;28;20029;-68
2022/04/17 11:21:46;;;;;;;5.63;0.93;;;;;;;;;;4992740;28;19913;-68
2022/04/17 11:24:11;;;;;;;3.30;1.35;;;;;;;;;;4992080;28;20026;-71
2022/04/17 11:26:54;;;;;;;1.33;0.65;;;;;;;;;;4991928;28;20090;-68
2022/04/17 11:29:34;;;;;;;3.28;1.05;;;;;;;;;;4991788;28;20024;-69
2022/04/17 11:32:00;;;;;;;3.83;1.42;;;;;;;;;;4990540;28;20023;-69
2022/04/17 11:34:25;;;;;;;1.00;0.73;;;;;;;;;;4991682;28;20093;-69
2022/04/17 11:36:51;;;;;;;1.35;0.80;;;;;;;;;;4997488;28;20108;-69
2022/04/17 11:39:28;;;;;;;1.10;0.80;;;;;;;;;;4993898;28;20100;-70
2022/04/17 11:41:53;;;;;;;2.55;1.13;;;;;;;;;;4990884;28;20022;-68
2022/04/17 11:44:18;;;;;;;2.80;0.70;;;;;;;;;;4991584;28;20029;-69
2022/04/17 11:46:43;;;;;;;4.22;0.63;;;;;;;;;;4991049;28;20543;-69
2022/04/17 11:49:09;;;;;;;4.60;1.23;;;;;;;;;;4993321;28;20014;-69
2022/04/17 11:51:43;;;;;;;2.20;1.10;;;;;;;;;;4990162;28;20301;-69
2022/04/17 11:54:28;;;;;;;3.20;1.65;;;;;;;;;;4987548;28;20693;-69
2022/04/17 11:56:53;;;;;;;2.30;0.90;;;;;;;;;;4987431;28;20092;-69
2022/04/17 11:59:18;;;;;;;3.07;1.40;;;;;;;;;;4988654;28;20033;-69
2022/04/17 12:01:43;;;;;;;2.43;1.07;;;;;;;;;;4989061;28;20653;-69
2022/04/17 12:04:19;;;;;;;3.50;1.08;;;;;;;;;;4989955;28;20812;-69
2022/04/17 12:06:44;;;;;;;1.77;1.00;;;;;;;;;;4992335;28;20018;-70
2022/04/17 12:09:11;;;;;;;4.35;0.80;;;;;;;;;;4988590;28;20077;-70
2022/04/17 12:11:36;;;;;;;1.70;0.70;;;;;;;;;;4992919;28;20018;-69
2022/04/17 12:14:01;;;;;;;3.80;0.70;;;;;;;;;;4989879;28;20026;-68
2022/04/17 12:16:27;;;;;;;5.43;2.58;;;;;;;;;;4990300;28;20101;-68
2022/04/17 12:18:55;;;;;;;2.25;1.10;;;;;;;;;;4990081;28;20105;-67
2022/04/17 12:21:26;;;;;;;3.53;0.77;;;;;;;;;;4990500;28;20026;-68
2022/04/17 12:23:53;;;;;;;2.15;0.90;;;;;;;;;;4988770;28;20034;-69
2022/04/17 12:26:19;;;;;;;1.92;0.90;;;;;;;;;;4990128;28;20015;-68
2022/04/17 12:28:44;;;;;;;2.13;1.05;;;;;;;;;;4990594;28;20068;-68
2022/04/17 12:31:12;;;;;;;4.32;1.20;;;;;;;;;;4989566;28;20049;-68
2022/04/17 12:33:37;;;;;;;1.73;1.10;;;;;;;;;;4989628;28;20038;-68
2022/04/17 12:36:02;;;;;;;2.03;0.83;;;;;;;;;;4990100;28;20026;-69
2022/04/17 12:38:27;;;;;;;2.37;1.70;;;;;;;;;;4987875;28;20364;-68
2022/04/17 12:40:52;;;;;;;1.30;0.77;;;;;;;;;;4991796;28;20280;-70
2022/04/17 12:43:21;;;;;;;4.40;1.30;;;;;;;;;;4989677;28;20018;-68
2022/04/17 12:45:54;;;;;;;1.38;0.82;;;;;;;;;;4989902;28;20511;-68
2022/04/17 12:48:32;;;;;;;5.05;2.15;;;;;;;;;;4990059;28;20096;-68
2022/04/17 12:51:09;;;;;;;4.95;1.00;;;;;;;;;;4989394;28;20014;-69
2022/04/17 12:53:36;;;;;;;2.83;0.65;;;;;;;;;;4990569;28;20466;-69
2022/04/17 12:56:01;;;;;;;4.90;0.93;;;;;;;;;;4988933;28;20057;-68
2022/04/17 12:58:26;;;;;;;1.95;1.00;;;;;;;;;;4986759;28;20475;-69
2022/04/17 13:00:56;;;;;;;0.98;0.50;;;;;;;;;;4987627;28;20030;-68
2022/04/17 13:03:23;;;;;;;1.17;0.70;;;;;;;;;;4994084;28;20021;-68
2022/04/17 13:06:00;;;;;;;2.05;0.68;;;;;;;;;;4989421;28;20050;-67
2022/04/17 13:08:26;;;;;;;4.20;1.00;;;;;;;;;;4987663;28;20036;-68
2022/04/17 13:10:51;;;;;;;4.25;0.95;;;;;;;;;;4989342;28;20022;-70
2022/04/17 13:13:16;;;;;;;1.60;0.60;;;;;;;;;;4989044;28;20113;-68
2022/04/17 13:15:41;;;;;;;2.13;0.70;;;;;;;;;;4989374;28;20281;-67
2022/04/17 13:18:06;;;;;;;1.53;0.80;;;;;;;;;;4989170;28;20270;-66
2022/04/17 13:20:32;;;;;;;2.07;0.70;;;;;;;;;;4989329;28;20288;-67
2022/04/17 13:22:57;;;;;;;1.77;0.70;;;;;;;;;;4988540;28;20289;-67
2022/04/17 13:25:22;;;;;;;3.67;0.77;;;;;;;;;;4990181;28;20014;-69
2022/04/17 13:27:48;;;;;;;3.13;1.23;;;;;;;;;;4986794;28;20022;-67
2022/04/17 13:30:14;;;;;;;1.77;0.80;;;;;;;;;;4985407;28;20023;-67
2022/04/17 13:32:40;;;;;;;5.32;2.63;;;;;;;;;;4989179;28;20024;-68
2022/04/17 13:35:05;;;;;;;1.88;0.90;;;;;;;;;;4990822;28;20117;-67
2022/04/17 13:40:14;;;;;;;2.67;0.65;;;;;;;;;;4990116;28;20033;-67
2022/04/17 13:42:40;;;;;;;1.90;1.03;;;;;;;;;;4994198;28;20030;-67
2022/04/17 13:45:05;;;;;;;1.20;0.50;;;;;;;;;;4987138;28;20773;-68
2022/04/17 13:47:31;;;;;;;3.35;0.80;;;;;;;;;;4988608;28;20346;-67
2022/04/17 13:49:56;;;;;;;3.28;0.68;;;;;;;;;;4988168;28;20018;-67
2022/04/17 13:52:21;;;;;;;1.70;0.73;;;;;;;;;;4988783;28;20023;-68
2022/04/17 13:54:47;;;;;;;1.60;0.80;;;;;;;;;;4986829;28;20765;-68
2022/04/17 13:57:12;;;;;;;1.10;0.80;;;;;;;;;;4988709;28;20394;-69
2022/04/17 13:59:37;;;;;;;4.77;1.87;;;;;;;;;;4986292;28;20023;-67
2022/04/17 14:02:02;;;;;;;1.17;0.67;;;;;;;;;;4966299;28;20019;-67
2022/04/17 14:04:27;;;;;;;1.95;0.70;;;;;;;;;;4987318;28;20281;-67
2022/04/17 14:06:53;;;;;;;3.03;0.60;;;;;;;;;;4988265;28;20033;-68
2022/04/17 14:09:18;;;;;;;2.97;0.93;;;;;;;;;;4987343;28;20027;-67
2022/04/17 14:11:44;;;;;;;1.25;0.60;;;;;;;;;;4981215;28;20045;-69
2022/04/17 14:14:09;;;;;;;1.80;0.68;;;;;;;;;;4987393;28;20052;-68
2022/04/17 14:16:34;;;;;;;8.40;1.02;;;;;;;;;;4987334;28;20113;-68
2022/04/17 14:18:59;;;;;;;6.17;0.90;;;;;;;;;;4989846;28;20030;-69
2022/04/17 14:21:25;;;;;;;3.25;0.90;;;;;;;;;;4991618;28;20030;-67
2022/04/17 14:23:50;;;;;;;2.13;0.80;;;;;;;;;;4998463;28;20037;-67
2022/04/17 14:26:15;;;;;;;1.47;0.97;;;;;;;;;;4990739;28;20014;-67
2022/04/17 14:28:40;;;;;;;2.70;0.88;;;;;;;;;;4993308;28;20541;-68
2022/04/17 14:31:05;;;;;;;2.90;1.00;;;;;;;;;;4990664;28;20021;-67
2022/04/17 14:33:31;;;;;;;1.37;0.60;;;;;;;;;;4991591;28;20049;-69
2022/04/17 14:35:59;;;;;;;2.78;0.90;;;;;;;;;;4989200;28;20026;-69
2022/04/17 14:38:24;;;;;;;1.35;0.65;;;;;;;;;;4993463;28;20106;-69
2022/04/17 14:40:50;;;;;;;2.72;0.75;;;;;;;;;;4994787;28;20237;-68
2022/04/17 14:43:15;;;;;;;1.45;0.70;;;;;;;;;;4992670;28;20034;-68
2022/04/17 14:45:40;;;;;;;2.60;0.77;;;;;;;;;;4989276;28;20410;-69
2022/04/17 14:48:06;;;;;;;2.43;1.73;;;;;;;;;;4993035;28;20022;-68
2022/04/17 14:50:32;;;;;;;1.50;0.90;;;;;;;;;;4991121;28;20277;-69
2022/04/17 14:52:57;;;;;;;2.42;1.00;;;;;;;;;;4990105;28;20049;-67
2022/04/17 14:55:22;;;;;;;2.90;1.08;;;;;;;;;;4989122;28;20046;-68
2022/04/17 14:57:48;;;;;;;0.63;0.50;;;;;;;;;;4989489;28;20034;-68